createdAt,value
2022-10-22T00:01:36.933Z,42.10
2022-10-22T00:06:36.838Z,46.00
2022-10-22T00:11:36.751Z,39.70
2022-10-22T00:16:36.980Z,43.20
2022-10-22T00:21:36.659Z,39.90
2022-10-22T00:26:53.919Z,40.50
2022-10-22T00:31:36.540Z,42.50
2022-10-22T00:36:37.319Z,45.50
2022-10-22T00:41:36.320Z,44.70
2022-10-22T00:46:44.594Z,47.70
2022-10-22T00:51:46.390Z,48.70
2022-10-22T00:56:49.342Z,44.30
2022-10-22T01:01:36.030Z,52.20
2022-10-22T01:06:35.969Z,50.70
2022-10-22T01:11:36.822Z,50.50
2022-10-22T01:16:36.288Z,51.20
2022-10-22T01:21:36.171Z,52.30
2022-10-22T01:26:35.752Z,51.50
2022-10-22T01:31:35.734Z,49.90
2022-10-22T01:36:35.826Z,49.70
2022-10-22T01:41:35.583Z,50.70
2022-10-22T01:46:46.902Z,50.80
2022-10-22T01:51:46.878Z,50.50
2022-10-22T01:56:35.286Z,48.20
2022-10-22T02:01:35.230Z,50.90
2022-10-22T02:06:35.158Z,53.80
2022-10-22T02:11:35.097Z,49.00
2022-10-22T02:16:35.032Z,49.40
2022-10-22T02:21:34.948Z,47.80
2022-10-22T02:26:34.921Z,45.70
2022-10-22T02:31:34.831Z,46.80
2022-10-22T02:36:35.160Z,46.60
2022-10-22T02:41:34.766Z,48.50
2022-10-22T02:46:34.788Z,46.50
2022-10-22T02:51:35.082Z,43.80
2022-10-22T02:56:38.522Z,49.10
2022-10-22T03:01:34.449Z,47.90
2022-10-22T03:06:34.342Z,46.00
2022-10-22T03:11:34.330Z,47.10
2022-10-22T03:16:34.478Z,47.80
2022-10-22T03:21:34.231Z,43.10
2022-10-22T03:26:34.180Z,47.00
2022-10-22T03:31:34.072Z,45.60
2022-10-22T03:36:33.952Z,45.00
2022-10-22T03:41:33.902Z,42.60
2022-10-22T03:46:34.588Z,45.00
2022-10-22T03:51:33.811Z,45.10
2022-10-22T03:56:33.719Z,46.50
2022-10-22T04:01:33.705Z,45.90
2022-10-22T04:06:33.573Z,45.20
2022-10-22T04:11:33.604Z,48.20
2022-10-22T04:16:33.601Z,49.40
2022-10-22T04:21:33.385Z,48.40
2022-10-22T04:26:33.300Z,49.30
2022-10-22T04:31:33.261Z,46.80
2022-10-22T04:36:33.180Z,45.50
2022-10-22T04:41:33.092Z,43.90
2022-10-22T04:46:33.027Z,47.80
2022-10-22T04:51:32.986Z,49.60
2022-10-22T04:56:32.931Z,44.00
2022-10-22T05:01:33.908Z,40.40
2022-10-22T05:06:32.799Z,41.90
2022-10-22T05:11:32.789Z,45.30
2022-10-22T05:16:32.744Z,42.90
2022-10-22T05:21:32.558Z,41.90
2022-10-22T05:26:41.636Z,45.10
2022-10-22T05:31:32.426Z,42.10
2022-10-22T05:36:32.373Z,35.30
2022-10-22T05:41:32.350Z,44.10
2022-10-22T05:46:32.257Z,43.70
2022-10-22T05:51:32.337Z,43.00
2022-10-22T05:56:32.150Z,40.60
2022-10-22T06:01:32.050Z,38.40
2022-10-22T06:06:31.985Z,42.40
2022-10-22T06:11:34.997Z,40.80
2022-10-22T06:16:32.020Z,39.70
2022-10-22T06:21:32.214Z,41.10
2022-10-22T06:26:31.857Z,39.60
2022-10-22T06:31:31.768Z,41.70
2022-10-22T06:36:31.734Z,35.90
2022-10-22T06:41:31.530Z,37.80
2022-10-22T06:46:31.461Z,37.80
2022-10-22T06:51:31.455Z,38.60
2022-10-22T06:56:31.437Z,35.20
2022-10-22T07:01:31.386Z,35.60
2022-10-22T07:06:31.237Z,35.70
2022-10-22T07:11:31.149Z,28.30
2022-10-22T07:16:32.457Z,31.40
2022-10-22T07:21:31.154Z,33.10
2022-10-22T07:26:31.234Z,34.10
2022-10-22T07:31:31.020Z,37.80
2022-10-22T07:36:30.903Z,37.80
2022-10-22T07:41:30.817Z,34.30
2022-10-22T07:46:30.708Z,36.20
2022-10-22T07:51:30.684Z,34.20
2022-10-22T07:56:30.585Z,36.10
2022-10-22T08:01:30.556Z,36.20
2022-10-22T08:06:30.423Z,43.50
2022-10-22T08:11:30.376Z,40.80
2022-10-22T08:16:30.283Z,43.10
2022-10-22T08:21:30.213Z,41.00
2022-10-22T08:26:30.163Z,40.70
2022-10-22T08:31:30.107Z,44.70
2022-10-22T08:36:30.079Z,46.00
2022-10-22T08:41:29.931Z,43.40
2022-10-22T08:46:29.899Z,43.00
2022-10-22T08:51:29.834Z,46.80
2022-10-22T08:56:29.775Z,49.20
2022-10-22T09:01:29.726Z,36.10
2022-10-22T09:06:29.690Z,29.00
2022-10-22T09:11:29.578Z,31.50
2022-10-22T09:16:29.525Z,29.80
2022-10-22T09:21:29.525Z,31.10
2022-10-22T09:26:29.469Z,21.70
2022-10-22T09:31:29.280Z,22.30
2022-10-22T09:36:29.261Z,23.20
2022-10-22T09:41:29.167Z,23.20
2022-10-22T09:46:29.126Z,20.80
2022-10-22T09:51:29.018Z,21.70
2022-10-22T09:56:29.000Z,18.70
2022-10-22T10:01:28.896Z,17.80
2022-10-22T10:06:28.836Z,19.00
2022-10-22T10:11:29.425Z,17.00
2022-10-22T10:16:28.933Z,17.10
2022-10-22T10:21:28.679Z,19.50
2022-10-22T10:26:28.713Z,17.50
2022-10-22T10:31:28.547Z,15.00
2022-10-22T10:36:28.448Z,17.20
2022-10-22T10:41:28.456Z,13.40
2022-10-22T10:46:29.544Z,13.90
2022-10-22T10:51:28.242Z,12.60
2022-10-22T10:56:28.290Z,12.50
2022-10-22T11:01:28.154Z,12.00
2022-10-22T11:06:28.217Z,12.60
2022-10-22T11:11:28.153Z,12.10
2022-10-22T11:16:28.158Z,10.50
2022-10-22T11:21:27.998Z,11.60
2022-10-22T11:26:27.793Z,10.20
2022-10-22T11:31:27.786Z,12.20
2022-10-22T11:36:27.767Z,12.10
2022-10-22T11:41:27.654Z,12.70
2022-10-22T11:46:27.537Z,12.40
2022-10-22T11:51:27.829Z,13.00
2022-10-22T11:56:27.434Z,10.90
2022-10-22T12:01:27.369Z,10.40
2022-10-22T12:06:27.268Z,9.60
2022-10-22T12:11:27.185Z,8.60
2022-10-22T12:16:43.942Z,9.40
2022-10-22T12:21:28.120Z,9.30
2022-10-22T12:26:26.988Z,10.80
2022-10-22T12:31:26.984Z,10.10
2022-10-22T12:36:26.868Z,10.20
2022-10-22T12:41:26.915Z,9.90
2022-10-22T12:46:26.713Z,10.70
2022-10-22T12:51:26.703Z,10.10
2022-10-22T12:56:26.597Z,11.30
2022-10-22T13:01:26.743Z,9.10
2022-10-22T13:06:26.488Z,10.50
2022-10-22T13:11:26.406Z,12.20
2022-10-22T13:16:26.397Z,10.50
2022-10-22T13:21:26.277Z,9.10
2022-10-22T13:26:26.240Z,10.00
2022-10-22T13:31:26.226Z,8.90
2022-10-22T13:36:26.086Z,6.90
2022-10-22T13:41:35.285Z,4.00
2022-10-22T13:46:25.920Z,2.10
2022-10-22T13:51:25.858Z,2.30
2022-10-22T13:56:25.813Z,2.10
2022-10-22T14:01:25.761Z,1.60
2022-10-22T14:06:25.736Z,1.80
2022-10-22T14:11:25.636Z,2.60
2022-10-22T14:16:25.531Z,1.80
2022-10-22T14:21:25.542Z,2.50
2022-10-22T14:26:25.398Z,3.00
2022-10-22T14:31:25.384Z,2.00
2022-10-22T14:36:25.263Z,2.20
2022-10-22T14:41:25.218Z,1.10
2022-10-22T14:46:25.127Z,2.60
2022-10-22T14:51:25.355Z,1.70
2022-10-22T14:56:25.035Z,1.60
2022-10-22T15:01:24.992Z,3.10
2022-10-22T15:06:25.134Z,2.10
2022-10-22T15:11:24.785Z,2.40
2022-10-22T15:16:24.723Z,2.00
2022-10-22T15:21:24.668Z,2.40
2022-10-22T15:26:24.628Z,1.40
2022-10-22T15:31:24.600Z,1.70
2022-10-22T15:36:24.465Z,1.40
2022-10-22T15:41:24.417Z,2.30
2022-10-22T15:46:24.351Z,2.20
2022-10-22T15:51:24.271Z,2.20
2022-10-22T15:56:24.199Z,1.90
2022-10-22T16:01:24.162Z,3.30
2022-10-22T16:06:24.061Z,2.60
2022-10-22T16:11:24.008Z,3.00
2022-10-22T16:16:24.013Z,3.40
2022-10-22T16:21:23.889Z,4.40
2022-10-22T16:26:23.816Z,9.20
2022-10-22T16:31:23.865Z,12.70
2022-10-22T16:36:23.730Z,19.20
2022-10-22T16:41:23.612Z,18.80
2022-10-22T16:46:23.547Z,23.20
2022-10-22T16:51:23.514Z,20.90
2022-10-22T16:56:23.461Z,28.20
2022-10-22T17:01:23.525Z,30.20
2022-10-22T17:06:23.503Z,28.70
2022-10-22T17:11:23.217Z,28.80
2022-10-22T17:16:23.169Z,29.20
2022-10-22T17:21:23.203Z,26.70
2022-10-22T17:26:23.072Z,23.70
2022-10-22T17:31:23.048Z,30.70
2022-10-22T17:36:22.874Z,33.80
2022-10-22T17:41:22.827Z,36.90
2022-10-22T17:46:22.776Z,37.00
2022-10-22T17:51:22.683Z,41.50
2022-10-22T17:56:22.611Z,39.50
2022-10-22T18:01:22.689Z,40.40
2022-10-22T18:06:22.506Z,32.30
2022-10-22T18:11:22.496Z,33.90
2022-10-22T18:16:22.410Z,38.90
2022-10-22T18:21:22.319Z,40.20
2022-10-22T18:26:25.883Z,42.20
2022-10-22T18:31:22.194Z,35.20
2022-10-22T18:36:22.200Z,34.80
2022-10-22T18:41:22.061Z,38.20
2022-10-22T18:46:21.991Z,38.90
2022-10-22T18:51:21.907Z,41.50
2022-10-22T18:56:21.838Z,47.60
2022-10-22T19:01:21.917Z,49.20
2022-10-22T19:06:21.725Z,46.40
2022-10-22T19:11:21.661Z,41.40
2022-10-22T19:16:21.590Z,42.40
2022-10-22T19:21:21.508Z,39.20
2022-10-22T19:26:21.449Z,40.00
2022-10-22T19:31:21.392Z,43.60
2022-10-22T19:36:21.335Z,37.00
2022-10-22T19:41:21.276Z,37.60
2022-10-22T19:46:21.179Z,37.60
2022-10-22T19:51:21.280Z,37.10
2022-10-22T19:56:22.773Z,32.00
2022-10-22T20:01:21.117Z,29.30
2022-10-22T20:06:20.934Z,30.00
2022-10-22T20:11:20.935Z,22.80
2022-10-22T20:16:20.840Z,20.30
2022-10-22T20:21:20.801Z,22.80
2022-10-22T20:26:20.655Z,16.60
2022-10-22T20:31:20.637Z,17.60
2022-10-22T20:36:20.533Z,18.60
2022-10-22T20:41:20.479Z,18.70
2022-10-22T20:46:20.399Z,18.90
2022-10-22T20:51:20.414Z,19.40
2022-10-22T20:56:20.283Z,20.10
2022-10-22T21:01:20.259Z,21.60
2022-10-22T21:06:20.151Z,16.40
2022-10-22T21:11:20.063Z,16.90
2022-10-22T21:16:20.004Z,19.20
2022-10-22T21:21:20.079Z,20.60
2022-10-22T21:26:19.899Z,18.30
2022-10-22T21:31:19.925Z,15.90
2022-10-22T21:36:22.756Z,17.00
2022-10-22T21:41:19.739Z,19.00
2022-10-22T21:46:19.605Z,23.80
2022-10-22T21:51:19.683Z,22.10
2022-10-22T21:56:19.523Z,20.00
2022-10-22T22:01:19.429Z,20.70
2022-10-22T22:06:21.360Z,20.00
2022-10-22T22:11:19.317Z,15.80
2022-10-22T22:16:21.307Z,18.30
2022-10-22T22:21:19.152Z,17.70
2022-10-22T22:26:19.073Z,18.20
2022-10-22T22:31:19.046Z,14.90
2022-10-22T22:36:18.979Z,18.60
2022-10-22T22:41:18.902Z,16.10
2022-10-22T22:46:18.873Z,16.50
2022-10-22T22:51:18.793Z,19.80
2022-10-22T22:56:18.690Z,19.30
2022-10-22T23:01:18.722Z,21.10
2022-10-22T23:06:18.563Z,18.60
2022-10-22T23:11:18.494Z,20.70
2022-10-22T23:16:18.455Z,21.90
2022-10-22T23:21:18.404Z,21.40
2022-10-22T23:26:18.287Z,20.30
2022-10-22T23:31:18.254Z,21.00
2022-10-22T23:36:18.236Z,21.10
2022-10-22T23:41:18.140Z,20.50
2022-10-22T23:46:18.159Z,19.20
2022-10-22T23:51:17.976Z,16.00
2022-10-22T23:56:17.960Z,19.20
